createdAt,value
2023-10-30T00:01:55.680Z,89.67
2023-10-30T00:04:22.313Z,89.84
2023-10-30T00:06:48.940Z,89.32
2023-10-30T00:09:18.552Z,89.63
2023-10-30T00:11:48.042Z,89.28
2023-10-30T00:14:14.561Z,90.05
2023-10-30T00:16:41.386Z,89.68
2023-10-30T00:19:07.949Z,90.57
2023-10-30T00:21:34.566Z,90.08
2023-10-30T00:24:02.461Z,89.81
2023-10-30T00:26:30.872Z,89.65
2023-10-30T00:28:58.696Z,90.14
2023-10-30T00:31:26.833Z,89.47
2023-10-30T00:33:54.354Z,89.01
2023-10-30T00:36:21.112Z,89.14
2023-10-30T00:38:47.674Z,89.65
2023-10-30T00:41:15.077Z,90.89
2023-10-30T00:43:41.720Z,90.92
2023-10-30T00:46:08.442Z,91.24
2023-10-30T00:48:35.547Z,91.56
2023-10-30T00:51:02.515Z,92.17
2023-10-30T00:53:29.154Z,92.41
2023-10-30T00:55:55.650Z,92.44
2023-10-30T00:58:22.264Z,93.13
2023-10-30T01:00:49.029Z,93.02
2023-10-30T01:03:16.760Z,93.45
2023-10-30T01:05:43.615Z,92.99
2023-10-30T01:08:10.257Z,93.38
2023-10-30T01:10:37.673Z,93.44
2023-10-30T01:13:04.428Z,93.30
2023-10-30T01:15:31.192Z,93.22
2023-10-30T01:17:58.369Z,93.55
2023-10-30T01:20:25.073Z,93.38
2023-10-30T01:22:51.706Z,93.47
2023-10-30T01:25:18.256Z,93.71
2023-10-30T01:27:45.114Z,93.90
2023-10-30T01:30:12.654Z,93.52
2023-10-30T01:32:39.367Z,93.18
2023-10-30T01:35:06.176Z,93.11
2023-10-30T01:37:32.724Z,93.02
2023-10-30T01:39:59.259Z,92.76
2023-10-30T01:42:25.835Z,93.18
2023-10-30T01:44:57.381Z,92.90
2023-10-30T01:47:25.050Z,92.67
2023-10-30T01:49:53.461Z,92.01
2023-10-30T01:52:21.212Z,91.97
2023-10-30T01:54:48.344Z,91.56
2023-10-30T01:57:21.758Z,91.66
2023-10-30T01:59:51.059Z,91.58
2023-10-30T02:02:24.619Z,90.98
2023-10-30T02:04:51.504Z,91.75
2023-10-30T02:07:20.964Z,91.96
2023-10-30T02:09:48.625Z,91.01
2023-10-30T02:12:15.459Z,91.44
2023-10-30T02:14:42.029Z,91.52
2023-10-30T02:17:08.626Z,91.54
2023-10-30T02:19:35.389Z,91.79
2023-10-30T02:22:01.913Z,92.23
2023-10-30T02:24:28.507Z,92.38
2023-10-30T02:26:55.272Z,92.60
2023-10-30T02:29:21.858Z,92.50
2023-10-30T02:31:48.444Z,92.99
2023-10-30T02:34:15.326Z,93.03
2023-10-30T02:36:42.255Z,93.11
2023-10-30T02:39:09.670Z,93.22
2023-10-30T02:41:36.403Z,93.03
2023-10-30T02:44:02.975Z,92.69
2023-10-30T02:46:29.456Z,93.27
2023-10-30T02:48:57.171Z,92.94
2023-10-30T02:51:24.014Z,93.42
2023-10-30T02:53:50.553Z,93.36
2023-10-30T02:56:17.077Z,92.71
2023-10-30T02:58:43.652Z,92.60
2023-10-30T03:01:10.206Z,93.49
2023-10-30T03:03:36.986Z,93.75
2023-10-30T03:06:03.995Z,93.98
2023-10-30T03:08:30.563Z,93.70
2023-10-30T03:10:57.066Z,93.46
2023-10-30T03:13:24.448Z,93.88
2023-10-30T03:15:50.981Z,93.73
2023-10-30T03:18:17.582Z,93.80
2023-10-30T03:20:44.043Z,93.88
2023-10-30T03:23:10.694Z,94.12
2023-10-30T03:25:37.263Z,94.10
2023-10-30T03:28:04.058Z,94.38
2023-10-30T03:30:30.672Z,94.11
2023-10-30T03:32:57.343Z,94.07
2023-10-30T03:35:23.988Z,94.52
2023-10-30T03:37:50.467Z,94.58
2023-10-30T03:40:16.960Z,94.85
2023-10-30T03:42:43.496Z,95.30
2023-10-30T03:45:10.168Z,95.18
2023-10-30T03:47:36.761Z,95.47
2023-10-30T03:50:03.541Z,96.16
2023-10-30T03:52:30.123Z,96.08
2023-10-30T03:55:00.418Z,96.52
2023-10-30T03:57:27.108Z,96.80
2023-10-30T03:59:53.806Z,97.51
2023-10-30T04:02:20.396Z,97.11
2023-10-30T04:04:46.979Z,97.33
2023-10-30T04:07:13.633Z,97.29
2023-10-30T04:09:40.421Z,97.21
2023-10-30T04:12:07.427Z,97.49
2023-10-30T04:14:33.942Z,96.76
2023-10-30T04:17:03.971Z,97.31
2023-10-30T04:19:31.072Z,97.77
2023-10-30T04:21:57.648Z,98.12
2023-10-30T04:24:24.165Z,98.47
2023-10-30T04:26:50.802Z,98.46
2023-10-30T04:29:18.160Z,98.84
2023-10-30T04:31:44.713Z,98.87
2023-10-30T04:34:11.229Z,97.99
2023-10-30T04:36:37.930Z,98.22
2023-10-30T04:39:04.695Z,98.54
2023-10-30T04:41:33.130Z,99.02
2023-10-30T04:43:59.734Z,99.09
2023-10-30T04:46:26.362Z,98.83
2023-10-30T04:48:53.099Z,99.02
2023-10-30T04:51:19.748Z,99.28
2023-10-30T04:53:46.366Z,99.03
2023-10-30T04:56:13.045Z,99.12
2023-10-30T04:58:39.676Z,98.93
2023-10-30T05:01:10.044Z,98.63
2023-10-30T05:03:37.871Z,98.69
2023-10-30T05:06:05.650Z,99.06
2023-10-30T05:08:33.217Z,99.14
2023-10-30T05:11:03.154Z,100.00
2023-10-30T05:13:30.296Z,100.00
2023-10-30T05:15:58.274Z,100.00
2023-10-30T05:18:25.932Z,100.00
2023-10-30T05:20:52.919Z,100.00
2023-10-30T05:23:19.639Z,100.00
2023-10-30T05:25:46.309Z,100.00
2023-10-30T05:28:13.567Z,100.00
2023-10-30T05:30:40.568Z,100.00
2023-10-30T05:33:07.602Z,100.00
2023-10-30T05:35:34.501Z,100.00
2023-10-30T05:38:01.173Z,100.00
2023-10-30T05:40:27.740Z,100.00
2023-10-30T05:42:54.286Z,100.00
2023-10-30T05:45:20.977Z,100.00
2023-10-30T05:47:49.075Z,100.00
2023-10-30T05:50:15.753Z,100.00
2023-10-30T05:52:42.267Z,100.00
2023-10-30T05:55:09.466Z,100.00
2023-10-30T05:57:37.658Z,100.00
2023-10-30T06:00:04.828Z,100.00
2023-10-30T06:02:31.393Z,99.86
2023-10-30T06:04:57.930Z,100.00
2023-10-30T06:07:24.436Z,100.00
2023-10-30T06:09:51.203Z,100.00
2023-10-30T06:12:17.945Z,100.00
2023-10-30T06:14:44.701Z,100.00
2023-10-30T06:17:11.285Z,99.94
2023-10-30T06:19:37.793Z,99.79
2023-10-30T06:22:04.393Z,99.53
2023-10-30T06:24:32.342Z,99.29
2023-10-30T06:26:59.129Z,99.15
2023-10-30T06:29:25.627Z,98.77
2023-10-30T06:31:52.354Z,98.46
2023-10-30T06:34:18.898Z,98.38
2023-10-30T06:36:47.446Z,98.42
2023-10-30T06:39:19.045Z,98.32
2023-10-30T06:41:45.726Z,98.11
2023-10-30T06:44:12.364Z,98.13
2023-10-30T06:46:39.250Z,98.19
2023-10-30T06:49:05.798Z,97.99
2023-10-30T06:51:32.460Z,97.88
2023-10-30T06:53:59.323Z,98.07
2023-10-30T06:56:26.294Z,98.18
2023-10-30T06:58:52.860Z,98.62
2023-10-30T07:01:19.423Z,98.15
2023-10-30T07:03:46.410Z,98.32
2023-10-30T07:06:13.123Z,98.62
2023-10-30T07:08:39.970Z,98.43
2023-10-30T07:11:06.549Z,98.97
2023-10-30T07:13:33.106Z,98.94
2023-10-30T07:15:59.631Z,98.52
2023-10-30T07:18:26.225Z,98.85
2023-10-30T07:20:52.907Z,98.78
2023-10-30T07:23:19.460Z,98.38
2023-10-30T07:25:45.942Z,98.56
2023-10-30T07:28:14.581Z,98.43
2023-10-30T07:30:41.239Z,98.21
2023-10-30T07:33:09.330Z,97.74
2023-10-30T07:35:35.963Z,97.53
2023-10-30T07:38:02.534Z,97.14
2023-10-30T07:40:29.140Z,96.32
2023-10-30T07:42:55.974Z,96.70
2023-10-30T07:45:22.878Z,96.03
2023-10-30T07:47:49.662Z,96.12
2023-10-30T07:50:16.340Z,95.84
2023-10-30T07:52:44.153Z,95.92
2023-10-30T07:55:11.445Z,94.74
2023-10-30T07:57:38.088Z,95.17
2023-10-30T08:00:05.747Z,94.74
2023-10-30T08:02:32.386Z,92.84
2023-10-30T08:05:00.460Z,92.81
2023-10-30T08:07:27.136Z,91.97
2023-10-30T08:09:53.738Z,91.06
2023-10-30T08:12:20.412Z,90.81
2023-10-30T08:14:48.150Z,90.07
2023-10-30T08:17:14.843Z,89.29
2023-10-30T08:19:41.459Z,90.98
2023-10-30T08:22:07.991Z,90.20
2023-10-30T08:24:34.569Z,88.68
2023-10-30T08:27:01.114Z,88.95
2023-10-30T08:29:28.111Z,89.38
2023-10-30T08:31:54.808Z,91.24
2023-10-30T08:34:21.884Z,88.60
2023-10-30T08:36:49.216Z,89.38
2023-10-30T08:39:16.036Z,87.05
2023-10-30T08:41:42.641Z,86.93
2023-10-30T08:44:09.204Z,86.05
2023-10-30T08:46:35.805Z,86.14
2023-10-30T08:49:02.402Z,86.63
2023-10-30T08:51:28.979Z,84.50
2023-10-30T08:53:55.573Z,84.87
2023-10-30T08:56:22.134Z,82.45
2023-10-30T08:58:48.588Z,85.22
2023-10-30T09:01:15.691Z,83.84
2023-10-30T09:03:42.819Z,84.04
2023-10-30T09:06:10.050Z,83.13
2023-10-30T09:08:36.694Z,83.41
2023-10-30T09:11:03.313Z,83.12
2023-10-30T09:13:29.819Z,83.52
2023-10-30T09:15:56.635Z,81.33
2023-10-30T09:18:23.217Z,80.89
2023-10-30T09:20:49.903Z,81.02
2023-10-30T09:23:16.436Z,81.29
2023-10-30T09:25:43.134Z,81.20
2023-10-30T09:28:09.774Z,80.22
2023-10-30T09:30:36.395Z,80.14
2023-10-30T09:33:03.200Z,79.18
2023-10-30T09:35:33.474Z,79.96
2023-10-30T09:38:00.330Z,77.75
2023-10-30T09:40:27.659Z,74.17
2023-10-30T09:42:55.898Z,72.09
2023-10-30T09:45:25.099Z,71.95
2023-10-30T09:47:57.173Z,72.61
2023-10-30T09:50:25.830Z,67.39
2023-10-30T09:52:53.549Z,69.95
2023-10-30T09:55:24.719Z,69.32
2023-10-30T09:57:53.514Z,68.16
2023-10-30T10:00:21.127Z,67.19
2023-10-30T10:02:48.653Z,67.16
2023-10-30T10:05:16.293Z,66.88
2023-10-30T10:07:42.878Z,66.96
2023-10-30T10:10:10.017Z,67.13
2023-10-30T10:12:40.042Z,67.89
2023-10-30T10:15:08.261Z,66.64
2023-10-30T10:17:43.348Z,63.38
2023-10-30T10:20:11.897Z,64.85
2023-10-30T10:22:39.197Z,66.61
2023-10-30T10:25:11.728Z,67.56
2023-10-30T10:27:39.422Z,68.23
2023-10-30T10:30:07.522Z,67.90
2023-10-30T10:32:34.447Z,68.63
2023-10-30T10:35:03.584Z,68.82
2023-10-30T10:37:30.683Z,68.70
2023-10-30T10:39:57.335Z,68.90
2023-10-30T10:42:28.431Z,69.26
2023-10-30T10:44:56.892Z,70.27
2023-10-30T10:47:24.312Z,70.52
2023-10-30T10:49:52.040Z,71.41
2023-10-30T10:52:22.655Z,69.93
2023-10-30T10:55:01.036Z,67.61
2023-10-30T10:57:29.495Z,68.48
2023-10-30T10:59:59.691Z,68.11
2023-10-30T11:02:39.571Z,67.42
2023-10-30T11:05:06.791Z,67.73
2023-10-30T11:07:58.871Z,65.73
2023-10-30T11:10:32.313Z,67.33
2023-10-30T11:13:17.247Z,67.17
2023-10-30T11:16:17.581Z,64.39
2023-10-30T11:18:44.281Z,65.71
2023-10-30T11:21:14.270Z,65.42
2023-10-30T11:24:00.699Z,63.30
2023-10-30T11:26:37.148Z,65.43
2023-10-30T11:29:17.365Z,65.18
2023-10-30T11:32:02.289Z,65.39
2023-10-30T11:34:36.279Z,66.54
2023-10-30T11:37:11.064Z,65.75
2023-10-30T11:39:42.345Z,65.90
2023-10-30T11:42:24.309Z,61.50
2023-10-30T11:44:52.241Z,61.06
2023-10-30T11:47:25.406Z,59.62
2023-10-30T11:49:56.772Z,59.45
2023-10-30T11:52:24.310Z,58.42
2023-10-30T11:54:51.182Z,59.35
2023-10-30T11:57:18.643Z,59.33
2023-10-30T11:59:45.168Z,58.89
2023-10-30T12:02:11.635Z,60.21
2023-10-30T12:04:38.330Z,60.07
2023-10-30T12:07:05.569Z,60.90
2023-10-30T12:09:32.375Z,60.33
2023-10-30T12:11:59.090Z,60.45
2023-10-30T12:14:28.056Z,59.87
2023-10-30T12:16:54.559Z,59.08
2023-10-30T12:19:21.938Z,59.35
2023-10-30T12:21:50.048Z,60.13
2023-10-30T12:24:17.709Z,59.40
2023-10-30T12:26:44.561Z,60.18
2023-10-30T12:29:11.255Z,60.81
2023-10-30T12:31:37.913Z,61.42
2023-10-30T12:34:12.631Z,59.96
2023-10-30T12:36:39.812Z,62.12
2023-10-30T12:39:14.741Z,60.93
2023-10-30T12:41:41.341Z,60.68
2023-10-30T12:44:08.343Z,58.54
2023-10-30T12:46:35.258Z,61.45
2023-10-30T12:49:02.265Z,61.91
2023-10-30T12:51:29.124Z,62.50
2023-10-30T12:53:55.772Z,63.35
2023-10-30T12:56:22.303Z,63.67
2023-10-30T12:58:49.009Z,64.19
2023-10-30T13:01:15.604Z,64.71
2023-10-30T13:03:42.218Z,65.01
2023-10-30T13:06:08.758Z,65.24
2023-10-30T13:08:35.265Z,65.35
2023-10-30T13:11:01.910Z,65.48
2023-10-30T13:13:28.403Z,64.76
2023-10-30T13:15:55.083Z,65.66
2023-10-30T13:18:21.640Z,66.10
2023-10-30T13:20:48.336Z,66.10
2023-10-30T13:23:14.922Z,66.98
2023-10-30T13:25:41.669Z,66.87
2023-10-30T13:28:09.230Z,66.65
2023-10-30T13:30:35.866Z,66.80
2023-10-30T13:33:02.482Z,66.36
2023-10-30T13:35:29.071Z,67.22
2023-10-30T13:37:55.636Z,67.75
2023-10-30T13:40:22.241Z,67.54
2023-10-30T13:42:48.803Z,68.21
2023-10-30T13:45:15.339Z,67.89
2023-10-30T13:47:41.859Z,68.35
2023-10-30T13:50:08.654Z,69.24
2023-10-30T13:52:36.561Z,68.98
2023-10-30T13:55:03.204Z,69.18
2023-10-30T13:57:29.836Z,69.71
2023-10-30T13:59:56.471Z,69.26
2023-10-30T14:02:22.993Z,70.04
2023-10-30T14:04:50.822Z,69.85
2023-10-30T14:07:20.635Z,70.29
2023-10-30T14:09:47.743Z,70.31
2023-10-30T14:12:16.307Z,70.69
2023-10-30T14:14:42.829Z,71.14
2023-10-30T14:17:09.459Z,71.19
2023-10-30T14:19:35.974Z,71.13
2023-10-30T14:22:02.487Z,71.62
2023-10-30T14:24:29.093Z,72.18
2023-10-30T14:26:55.701Z,72.11
2023-10-30T14:29:22.381Z,72.68
2023-10-30T14:31:48.923Z,72.94
2023-10-30T14:34:15.702Z,73.51
2023-10-30T14:36:42.262Z,73.85
2023-10-30T14:39:09.522Z,74.24
2023-10-30T14:41:36.954Z,75.97
2023-10-30T14:44:03.614Z,76.23
2023-10-30T14:46:30.240Z,76.68
2023-10-30T14:48:58.128Z,76.39
2023-10-30T14:51:24.757Z,76.74
2023-10-30T14:53:51.254Z,76.69
2023-10-30T14:56:18.682Z,77.41
2023-10-30T14:58:45.298Z,77.25
2023-10-30T15:01:11.945Z,77.46
2023-10-30T15:03:38.617Z,77.60
2023-10-30T15:06:05.436Z,78.21
2023-10-30T15:08:31.965Z,78.71
2023-10-30T15:10:58.535Z,79.55
2023-10-30T15:13:25.049Z,79.20
2023-10-30T15:15:51.808Z,80.47
2023-10-30T15:18:18.486Z,81.75
2023-10-30T15:20:45.139Z,81.31
2023-10-30T15:23:11.903Z,82.14
2023-10-30T15:25:38.511Z,81.38
2023-10-30T15:28:05.198Z,80.94
2023-10-30T15:30:31.871Z,81.57
2023-10-30T15:32:58.485Z,83.12
2023-10-30T15:35:25.101Z,83.22
2023-10-30T15:37:51.992Z,85.31
2023-10-30T15:40:18.634Z,87.50
2023-10-30T15:42:46.231Z,86.46
2023-10-30T15:45:12.943Z,87.13
2023-10-30T15:47:39.633Z,87.89
2023-10-30T15:50:07.133Z,87.68
2023-10-30T15:57:37.209Z,84.64
2023-10-30T16:00:04.076Z,85.79
2023-10-30T16:02:30.716Z,87.27
2023-10-30T16:07:27.456Z,86.92
2023-10-30T16:09:54.325Z,87.36
2023-10-30T16:12:37.325Z,87.66
2023-10-30T16:15:07.364Z,87.20
2023-10-30T16:17:34.156Z,86.41
2023-10-30T16:22:30.308Z,86.90
2023-10-30T16:24:56.774Z,87.37
2023-10-30T16:27:23.325Z,87.74
2023-10-30T16:29:50.005Z,88.06
2023-10-30T16:32:17.790Z,86.68
2023-10-30T16:34:44.406Z,86.60
2023-10-30T16:37:11.001Z,86.30
2023-10-30T16:39:37.586Z,88.64
2023-10-30T16:42:04.465Z,87.77
2023-10-30T16:44:30.987Z,87.12
2023-10-30T16:46:57.570Z,87.68
2023-10-30T16:49:24.148Z,88.91
2023-10-30T16:51:50.765Z,87.68
2023-10-30T16:54:17.417Z,87.78
2023-10-30T16:56:44.076Z,87.70
2023-10-30T16:59:10.573Z,89.04
2023-10-30T17:01:37.608Z,88.76
2023-10-30T17:04:04.420Z,88.68
2023-10-30T17:06:31.052Z,87.34
2023-10-30T17:08:57.648Z,87.51
2023-10-30T17:11:24.426Z,86.84
2023-10-30T17:13:51.519Z,87.53
2023-10-30T17:16:18.116Z,87.27
2023-10-30T17:18:44.835Z,86.69
2023-10-30T17:21:11.427Z,87.22
2023-10-30T17:23:38.494Z,87.46
2023-10-30T17:26:05.971Z,87.51
2023-10-30T17:28:33.605Z,87.69
2023-10-30T17:31:00.220Z,88.07
2023-10-30T17:33:26.828Z,87.37
2023-10-30T17:35:53.447Z,87.52
2023-10-30T17:38:20.024Z,87.61
2023-10-30T17:40:46.723Z,87.44
2023-10-30T17:43:13.300Z,87.82
2023-10-30T17:45:39.915Z,88.17
2023-10-30T17:48:06.799Z,87.71
2023-10-30T17:50:33.466Z,87.77
2023-10-30T17:53:00.340Z,88.16
2023-10-30T17:55:26.859Z,88.36
2023-10-30T17:57:53.521Z,87.95
2023-10-30T18:00:20.240Z,88.98
2023-10-30T18:02:46.838Z,89.01
2023-10-30T18:05:13.524Z,89.28
2023-10-30T18:07:40.091Z,89.98
2023-10-30T18:10:06.951Z,89.42
2023-10-30T18:12:33.479Z,90.19
2023-10-30T18:15:00.153Z,90.07
2023-10-30T18:17:27.761Z,89.86
2023-10-30T18:19:54.428Z,89.65
2023-10-30T18:22:21.055Z,89.83
2023-10-30T18:24:48.113Z,90.32
2023-10-30T18:27:14.727Z,90.79
2023-10-30T18:29:43.811Z,90.79
2023-10-30T18:32:10.345Z,90.66
2023-10-30T18:34:36.946Z,90.30
2023-10-30T18:37:05.317Z,91.33
2023-10-30T18:39:31.812Z,91.52
2023-10-30T18:41:58.486Z,91.29
2023-10-30T18:44:25.002Z,91.03
2023-10-30T18:46:52.815Z,90.89
2023-10-30T18:49:19.427Z,90.94
2023-10-30T18:51:46.278Z,91.36
2023-10-30T18:54:12.892Z,91.25
2023-10-30T18:56:39.468Z,91.24
2023-10-30T18:59:05.939Z,91.43
2023-10-30T19:01:32.514Z,91.14
2023-10-30T19:03:59.090Z,91.04
2023-10-30T19:06:25.902Z,91.70
2023-10-30T19:08:54.849Z,91.86
2023-10-30T19:11:21.959Z,91.76
2023-10-30T19:13:48.789Z,92.20
2023-10-30T19:16:15.805Z,92.00
2023-10-30T19:18:42.589Z,91.87
2023-10-30T19:21:09.157Z,91.51
2023-10-30T19:23:35.684Z,91.84
2023-10-30T19:26:02.731Z,91.93
2023-10-30T19:28:29.338Z,92.46
2023-10-30T19:30:58.427Z,91.88
2023-10-30T19:33:27.355Z,92.35
2023-10-30T19:35:53.880Z,92.42
2023-10-30T19:38:20.466Z,92.20
2023-10-30T19:40:47.051Z,92.36
2023-10-30T19:43:13.746Z,92.21
2023-10-30T19:45:40.817Z,92.35
2023-10-30T19:48:07.615Z,92.92
2023-10-30T19:50:34.271Z,92.79
2023-10-30T19:53:00.857Z,92.94
2023-10-30T19:55:27.858Z,92.74
2023-10-30T19:57:54.434Z,93.08
2023-10-30T20:00:21.290Z,93.16
2023-10-30T20:02:47.942Z,93.44
2023-10-30T20:05:15.019Z,93.40
2023-10-30T20:07:42.627Z,93.33
2023-10-30T20:10:22.113Z,93.24
2023-10-30T20:12:57.025Z,93.85
2023-10-30T20:15:24.476Z,93.55
2023-10-30T20:17:51.167Z,93.46
2023-10-30T20:20:18.339Z,93.54
2023-10-30T20:22:45.081Z,94.34
2023-10-30T20:25:12.368Z,94.86
2023-10-30T20:27:38.997Z,94.04
2023-10-30T20:30:06.068Z,94.40
2023-10-30T20:32:32.744Z,95.28
2023-10-30T20:34:59.297Z,95.38
2023-10-30T20:37:25.890Z,96.31
2023-10-30T20:39:52.850Z,95.71
2023-10-30T20:42:20.262Z,95.60
2023-10-30T20:44:46.754Z,97.23
2023-10-30T20:47:13.381Z,96.69
2023-10-30T20:49:43.173Z,97.58
2023-10-30T20:52:09.772Z,97.91
2023-10-30T20:54:39.058Z,97.09
2023-10-30T20:57:05.589Z,97.23
2023-10-30T20:59:32.233Z,97.17
2023-10-30T21:01:58.949Z,98.95
2023-10-30T21:04:25.740Z,98.50
2023-10-30T21:06:52.546Z,98.71
2023-10-30T21:09:19.309Z,99.68
2023-10-30T21:11:47.448Z,99.52
2023-10-30T21:14:14.068Z,99.61
2023-10-30T21:16:40.859Z,100.00
2023-10-30T21:19:07.528Z,100.00
2023-10-30T21:21:34.225Z,100.00
2023-10-30T21:24:01.131Z,100.00
2023-10-30T21:26:27.709Z,100.00
2023-10-30T21:28:54.410Z,100.00
2023-10-30T21:31:21.103Z,100.00
2023-10-30T21:33:47.688Z,100.00
2023-10-30T21:36:14.340Z,100.00
2023-10-30T21:38:40.797Z,100.00
2023-10-30T21:41:07.336Z,100.00
2023-10-30T21:43:33.887Z,100.00
2023-10-30T21:46:00.586Z,100.00
2023-10-30T21:48:27.204Z,100.00
2023-10-30T21:50:53.752Z,100.00
2023-10-30T21:53:20.311Z,100.00
2023-10-30T21:55:47.265Z,100.00
2023-10-30T21:58:13.855Z,100.00
2023-10-30T22:00:40.879Z,100.00
2023-10-30T22:03:07.615Z,100.00
2023-10-30T22:05:34.258Z,100.00
2023-10-30T22:08:00.822Z,100.00
2023-10-30T22:10:28.085Z,100.00
2023-10-30T22:12:55.085Z,100.00
2023-10-30T22:15:23.326Z,100.00
2023-10-30T22:17:49.993Z,100.00
2023-10-30T22:20:16.608Z,100.00
2023-10-30T22:22:43.260Z,100.00
2023-10-30T22:25:11.371Z,100.00
2023-10-30T22:27:39.966Z,100.00
2023-10-30T22:30:09.871Z,100.00
2023-10-30T22:32:38.614Z,100.00
2023-10-30T22:35:05.495Z,100.00
2023-10-30T22:37:31.987Z,100.00
2023-10-30T22:39:58.616Z,100.00
2023-10-30T22:42:25.142Z,100.00
2023-10-30T22:44:51.664Z,100.00
2023-10-30T22:47:18.182Z,100.00
2023-10-30T22:49:44.783Z,100.00
2023-10-30T22:52:11.359Z,100.00
2023-10-30T22:54:37.892Z,100.00
2023-10-30T22:57:04.412Z,100.00
2023-10-30T22:59:30.996Z,100.00
2023-10-30T23:01:57.563Z,100.00
2023-10-30T23:04:24.070Z,100.00
2023-10-30T23:06:50.606Z,100.00
2023-10-30T23:09:17.152Z,100.00
2023-10-30T23:11:43.723Z,100.00
2023-10-30T23:14:10.359Z,100.00
2023-10-30T23:16:36.928Z,100.00
2023-10-30T23:19:03.539Z,100.00
2023-10-30T23:21:30.098Z,100.00
2023-10-30T23:23:56.637Z,100.00
2023-10-30T23:26:23.112Z,100.00
2023-10-30T23:28:49.773Z,100.00
2023-10-30T23:31:16.358Z,100.00
2023-10-30T23:33:42.831Z,100.00
2023-10-30T23:36:10.481Z,100.00
2023-10-30T23:38:37.090Z,100.00
2023-10-30T23:41:03.985Z,100.00
2023-10-30T23:43:30.708Z,100.00
2023-10-30T23:45:57.294Z,100.00
2023-10-30T23:48:23.825Z,100.00
2023-10-30T23:50:50.443Z,100.00
2023-10-30T23:53:16.967Z,100.00
2023-10-30T23:55:43.562Z,100.00
2023-10-30T23:58:10.089Z,100.00
